Time;durP1;ratioP1;P1;durP2;ratioP2;P2;SDS_P1;SDS_P2;PMS_P1;PMS_P2;Temp;Humidity;BMP_temperature;BMP_pressure;BME280_temperature;BME280_humidity;BME280_pressure;Samples;Min_cycle;Max_cycle;Signal;HPM_P1;HPM_P2
2022/03/14 00:00:19;;;;;;;0.20;0.20;;;;;;;3.66;44.25;101450.13;5032772;28;20079;-79
2022/03/14 00:02:52;;;;;;;0.10;0.10;;;;;;;3.62;44.13;101456.13;5039020;28;20445;-79
2022/03/14 00:05:31;;;;;;;0.20;0.20;;;;;;;3.54;44.31;101457.22;5036681;28;20045;-80
2022/03/14 00:08:06;;;;;;;0.20;0.20;;;;;;;3.44;44.60;101446.91;5041577;28;20804;-78
2022/03/14 00:10:41;;;;;;;0.20;0.20;;;;;;;3.53;44.50;101442.09;5048367;28;20041;-79
2022/03/14 00:13:16;;;;;;;0.10;0.10;;;;;;;3.51;44.88;101457.66;5039934;28;20061;-80
2022/03/14 00:15:49;;;;;;;0.15;0.15;;;;;;;3.48;45.37;101450.81;5043501;28;20509;-78
2022/03/14 00:18:23;;;;;;;0.20;0.20;;;;;;;3.43;44.90;101456.00;5036099;28;20048;-79
2022/03/14 00:20:56;;;;;;;0.20;0.20;;;;;;;3.32;45.71;101451.28;5032654;28;20454;-79
2022/03/14 00:23:29;;;;;;;0.20;0.20;;;;;;;3.27;45.52;101451.09;5037217;28;20053;-79
2022/03/14 00:26:00;;;;;;;0.20;0.20;;;;;;;3.30;45.18;101459.56;5049708;28;20505;-80
2022/03/14 00:28:33;;;;;;;0.15;0.15;;;;;;;3.25;46.28;101464.75;5035447;28;20048;-78
2022/03/14 00:31:01;;;;;;;0.20;0.20;;;;;;;3.17;45.75;101462.31;5033720;28;20046;-77
2022/03/14 00:33:35;;;;;;;0.10;0.10;;;;;;;3.22;45.84;101468.69;5043481;28;20049;-80
2022/03/14 00:36:09;;;;;;;0.20;0.20;;;;;;;3.19;45.49;101463.75;5035897;28;20053;-80
2022/03/14 00:38:42;;;;;;;0.20;0.20;;;;;;;3.21;46.81;101467.03;5038091;28;20037;-80
2022/03/14 00:41:17;;;;;;;0.20;0.20;;;;;;;3.19;45.90;101452.97;5036383;28;20049;-79
2022/03/14 00:43:51;;;;;;;0.20;0.20;;;;;;;3.17;45.84;101465.00;5051097;28;20057;-79
2022/03/14 00:46:19;;;;;;;0.10;0.10;;;;;;;3.08;46.20;101461.72;5040567;28;20056;-80
2022/03/14 00:48:52;;;;;;;0.20;0.20;;;;;;;3.13;46.39;101464.56;5042748;28;20437;-79
2022/03/14 00:51:21;;;;;;;0.20;0.20;;;;;;;3.02;46.92;101455.28;5045254;28;20049;-79
2022/03/14 00:53:54;;;;;;;0.20;0.20;;;;;;;3.01;47.13;101463.56;5046367;28;20057;-79
2022/03/14 00:56:30;;;;;;;0.20;0.20;;;;;;;3.00;46.64;101460.06;5044570;28;20045;-79
2022/03/14 00:59:03;;;;;;;0.20;0.20;;;;;;;2.99;46.86;101462.97;5041624;28;20069;-79
2022/03/14 01:01:36;;;;;;;0.20;0.20;;;;;;;2.97;46.75;101452.41;5036571;28;20052;-79
2022/03/14 01:04:04;;;;;;;0.20;0.20;;;;;;;3.01;46.64;101461.72;5036712;28;20076;-79
2022/03/14 01:06:34;;;;;;;0.20;0.20;;;;;;;2.95;47.28;101467.09;5042576;28;20068;-79
2022/03/14 01:09:07;;;;;;;0.20;0.20;;;;;;;2.82;47.70;101474.16;5039586;28;20405;-79
2022/03/14 01:11:37;;;;;;;0.10;0.10;;;;;;;2.72;48.06;101473.72;5035778;28;20060;-79
2022/03/14 01:14:12;;;;;;;0.15;0.15;;;;;;;2.70;48.95;101470.44;5041595;28;20061;-79
2022/03/14 01:16:45;;;;;;;0.17;0.17;;;;;;;2.63;48.64;101472.31;5047243;28;20053;-79
2022/03/14 01:19:13;;;;;;;0.10;0.10;;;;;;;2.62;48.46;101474.16;5038799;28;20531;-80
2022/03/14 01:21:46;;;;;;;0.10;0.10;;;;;;;2.60;48.34;101465.47;5031171;28;20057;-79
2022/03/14 01:24:19;;;;;;;0.20;0.20;;;;;;;2.59;48.83;101471.88;5035779;28;20054;-80
2022/03/14 01:26:54;;;;;;;0.20;0.20;;;;;;;2.50;48.50;101473.13;5033386;28;20540;-79
2022/03/14 01:29:25;;;;;;;0.20;0.20;;;;;;;2.57;47.92;101478.50;5038456;28;20049;-79
2022/03/14 01:31:54;;;;;;;0.20;0.20;;;;;;;2.53;48.42;101478.91;5034008;28;20056;-79
2022/03/14 01:34:27;;;;;;;0.15;0.15;;;;;;;2.46;48.50;101480.78;5042767;28;20050;-79
2022/03/14 01:37:02;;;;;;;0.20;0.20;;;;;;;2.38;48.60;101484.47;5031701;28;20064;-79
2022/03/14 01:39:35;;;;;;;0.13;0.13;;;;;;;2.34;50.02;101496.66;5040245;28;20091;-80
2022/03/14 01:42:05;;;;;;;0.10;0.10;;;;;;;2.22;49.24;101479.50;5032134;28;20057;-79
2022/03/14 01:44:38;;;;;;;0.20;0.20;;;;;;;2.24;50.14;101504.31;5039043;28;20042;-79
2022/03/14 01:47:11;;;;;;;0.20;0.20;;;;;;;2.19;50.33;101493.34;5034974;28;20516;-80
2022/03/14 01:49:46;;;;;;;0.20;0.20;;;;;;;2.28;49.84;101502.03;5038707;28;20068;-80
2022/03/14 01:52:20;;;;;;;0.10;0.10;;;;;;;2.26;50.21;101496.03;5032210;28;20056;-79
2022/03/14 01:54:53;;;;;;;0.10;0.10;;;;;;;2.28;49.52;101507.41;5031083;28;20057;-79
2022/03/14 01:57:29;;;;;;;0.20;0.20;;;;;;;2.28;49.37;101507.41;5032000;28;20382;-79
2022/03/14 01:59:58;;;;;;;0.15;0.15;;;;;;;2.20;50.38;101497.69;5031935;28;20049;-79
2022/03/14 02:02:41;;;;;;;0.10;0.10;;;;;;;2.28;49.76;101500.19;5052481;28;20653;-79
2022/03/14 02:05:15;;;;;;;0.20;0.20;;;;;;;2.21;49.70;101499.34;5037093;28;20049;-79
2022/03/14 02:07:43;;;;;;;0.17;0.17;;;;;;;2.14;50.33;101504.72;5044319;28;20049;-79
2022/03/14 02:10:16;;;;;;;0.10;0.10;;;;;;;2.07;51.35;101500.34;5048730;28;20068;-80
2022/03/14 02:12:51;;;;;;;0.20;0.20;;;;;;;1.95;51.71;101497.44;5032346;28;20053;-79
2022/03/14 02:15:24;;;;;;;0.20;0.20;;;;;;;1.86;51.90;101502.97;5032607;28;20056;-79
2022/03/14 02:17:57;;;;;;;0.20;0.20;;;;;;;1.83;52.65;101508.72;5038025;28;20397;-79
2022/03/14 02:20:31;;;;;;;0.17;0.17;;;;;;;1.73;54.11;101504.75;5048578;28;20046;-79
2022/03/14 02:23:04;;;;;;;0.20;0.20;;;;;;;1.67;54.31;101496.50;5039675;28;20420;-79
2022/03/14 02:25:47;;;;;;;0.20;0.20;;;;;;;1.68;54.77;101497.31;5038343;28;20225;-79
2022/03/14 02:28:23;;;;;;;0.20;0.20;;;;;;;1.62;54.53;101506.19;5036375;28;20049;-79
2022/03/14 02:30:51;;;;;;;0.20;0.20;;;;;;;1.55;55.84;101495.44;5042196;28;20518;-79
2022/03/14 02:33:24;;;;;;;0.20;0.20;;;;;;;1.50;56.36;101506.72;5035403;28;20045;-79
2022/03/14 02:35:59;;;;;;;0.20;0.20;;;;;;;1.47;56.47;101509.81;5038670;28;20056;-79
2022/03/14 02:38:32;;;;;;;0.20;0.20;;;;;;;1.42;56.56;101506.91;5033125;28;20038;-78
2022/03/14 02:41:00;;;;;;;0.20;0.20;;;;;;;1.43;56.78;101497.84;5032437;28;20049;-78
2022/03/14 02:43:35;;;;;;;0.10;0.10;;;;;;;1.40;57.52;101498.25;5030562;28;20053;-78
2022/03/14 02:46:08;;;;;;;0.20;0.20;;;;;;;1.46;57.60;101501.97;5035497;28;20060;-79
2022/03/14 02:48:36;;;;;;;;;;;;;;;1.43;57.19;101502.38;5037731;28;20064;-79
2022/03/14 02:51:08;;;;;;;;;;;;;;;1.44;55.88;101493.31;5034751;28;19936;-79
2022/03/14 02:53:35;;;;;;;;;;;;;;;1.42;56.45;101511.44;5045934;28;19925;-78
2022/03/14 02:56:04;;;;;;;0.10;0.10;;;;;;;1.38;56.92;101508.31;5046084;28;19925;-79
2022/03/14 02:58:32;;;;;;;0.10;0.10;;;;;;;1.32;57.97;101501.09;5040877;28;20381;-80
2022/03/14 03:01:06;;;;;;;0.20;0.20;;;;;;;1.34;58.95;101504.38;5030700;28;20049;-80
2022/03/14 03:03:39;;;;;;;0.17;0.17;;;;;;;1.37;57.52;101514.72;5035715;28;20049;-79
2022/03/14 03:06:13;;;;;;;0.20;0.20;;;;;;;1.35;57.42;101516.78;5030855;28;20076;-79
2022/03/14 03:08:49;;;;;;;0.17;0.17;;;;;;;1.42;55.99;101514.94;5042722;28;20053;-79
2022/03/14 03:11:22;;;;;;;;;;;;;;;1.45;56.19;101519.94;5039618;28;20411;-79
2022/03/14 03:13:54;;;;;;;0.20;0.20;;;;;;;1.41;57.48;101531.25;5039295;28;19921;-80
2022/03/14 03:16:23;;;;;;;0.10;0.10;;;;;;;1.30;57.98;101535.34;5035654;28;20049;-79
2022/03/14 03:18:56;;;;;;;0.20;0.20;;;;;;;1.22;59.04;101530.94;5036177;28;20378;-79
2022/03/14 03:21:34;;;;;;;0.20;0.20;;;;;;;1.07;61.23;101532.91;5037241;28;20056;-78
2022/03/14 03:24:08;;;;;;;0.10;0.10;;;;;;;1.07;61.16;101528.34;5046882;28;20072;-79
2022/03/14 03:26:41;;;;;;;0.20;0.20;;;;;;;1.07;60.47;101525.69;5050159;28;20486;-80
2022/03/14 03:29:14;;;;;;;0.10;0.10;;;;;;;1.08;59.72;101524.66;5032075;28;20038;-79
2022/03/14 03:31:47;;;;;;;;;;;;;;;1.02;61.68;101525.44;5042381;28;20057;-79
2022/03/14 03:34:20;;;;;;;;;;;;;;;0.96;62.80;101532.41;5036661;28;19920;-79
2022/03/14 03:36:54;;;;;;;;;;;;;;;0.84;66.29;101528.59;5040494;28;20300;-79
2022/03/14 03:39:30;;;;;;;;;;;;;;;0.90;61.61;101522.47;5034876;28;19940;-79
2022/03/14 03:42:03;;;;;;;;;;;;;;;0.96;62.34;101532.41;5044667;28;19928;-79
2022/03/14 03:44:36;;;;;;;;;;;;;;;0.97;62.00;101530.56;5047605;28;20293;-79
2022/03/14 03:47:09;;;;;;;;;;;;;;;0.97;62.38;101534.06;5044198;28;19924;-80
2022/03/14 03:49:42;;;;;;;;;;;;;;;0.94;62.06;101530.94;5038935;28;19928;-80
2022/03/14 03:52:16;;;;;;;;;;;;;;;0.92;61.82;101535.66;5038252;28;19920;-78
2022/03/14 03:54:44;;;;;;;;;;;;;;;0.98;61.36;101532.19;5038580;28;19940;-79
2022/03/14 03:57:17;;;;;;;;;;;;;;;1.02;60.60;101544.19;5034723;28;19932;-80
2022/03/14 03:59:50;;;;;;;;;;;;;;;0.99;60.79;101541.91;5041356;28;19921;-79
2022/03/14 04:02:19;;;;;;;;;;;;;;;0.94;61.75;101539.81;5038173;28;19921;-78
2022/03/14 04:04:52;;;;;;;;;;;;;;;0.90;64.90;101548.44;5040214;28;19982;-79
2022/03/14 04:07:26;;;;;;;;;;;;;;;0.78;66.65;101542.78;5049373;28;19928;-79
2022/03/14 04:09:59;;;;;;;;;;;;;;;0.81;62.45;101540.53;5033499;28;19925;-78
2022/03/14 04:12:32;;;;;;;;;;;;;;;0.81;63.10;101529.81;5034717;28;19928;-79
2022/03/14 04:15:04;;;;;;;;;;;;;;;0.89;61.93;101536.06;5038217;28;19928;-79
2022/03/14 04:17:33;;;;;;;0.20;0.20;;;;;;;1.00;60.04;101539.03;5053096;28;19921;-79
2022/03/14 04:20:01;;;;;;;0.20;0.20;;;;;;;0.98;60.84;101530.38;5038091;28;20053;-79
2022/03/14 04:22:38;;;;;;;0.20;0.20;;;;;;;0.90;61.13;101535.88;5034942;28;20053;-79
2022/03/14 04:25:07;;;;;;;;;;;;;;;0.84;62.88;101542.84;5042476;28;20049;-79
2022/03/14 04:27:40;;;;;;;;;;;;;;;0.79;62.13;101539.09;5036332;28;19921;-79
2022/03/14 04:30:14;;;;;;;;;;;;;;;0.66;65.64;101535.28;5034267;28;20271;-78
2022/03/14 04:32:41;;;;;;;;;;;;;;;0.66;63.60;101550.50;5037126;28;19925;-79
2022/03/14 04:35:15;;;;;;;;;;;;;;;0.66;65.95;101542.47;5048647;28;19920;-79
2022/03/14 04:37:49;;;;;;;;;;;;;;;0.55;66.11;101545.66;5040658;28;19947;-78
2022/03/14 04:40:17;;;;;;;;;;;;;;;0.54;65.85;101544.84;5036263;28;19936;-78
2022/03/14 04:42:50;;;;;;;;;;;;;;;0.51;72.28;101558.59;5038984;28;19928;-78
2022/03/14 04:45:18;;;;;;;;;;;;;;;0.52;63.91;101554.91;5039013;28;19927;-79
2022/03/14 04:47:46;;;;;;;;;;;;;;;0.51;67.45;101558.59;5038915;28;19925;-79
2022/03/14 04:50:19;;;;;;;;;;;;;;;0.55;63.82;101557.19;5033849;28;19925;-80
2022/03/14 04:52:53;;;;;;;;;;;;;;;0.50;61.33;101546.25;5032656;28;20405;-79
2022/03/14 04:55:26;;;;;;;;;;;;;;;0.55;62.26;101569.78;5048206;28;20238;-79
2022/03/14 04:57:59;;;;;;;;;;;;;;;0.50;63.81;101565.00;5033967;28;19921;-80
2022/03/14 05:00:33;;;;;;;;;;;;;;;0.44;66.73;101571.09;5038333;28;19924;-78
2022/03/14 05:03:07;;;;;;;;;;;;;;;0.34;67.25;101571.41;5035858;28;19921;-79
2022/03/14 05:05:38;;;;;;;;;;;;;;;0.29;67.53;101577.34;5040464;28;19925;-78
2022/03/14 05:08:12;;;;;;;;;;;;;;;0.31;68.04;101577.16;5033474;28;19921;-79
2022/03/14 05:10:45;;;;;;;;;;;;;;;0.29;67.74;101582.69;5034462;28;20278;-79
2022/03/14 05:13:18;;;;;;;;;;;;;;;0.23;71.45;101583.44;5034324;28;19925;-79
2022/03/14 05:15:51;;;;;;;;;;;;;;;0.16;69.16;101582.53;5034559;28;19927;-78
2022/03/14 05:18:19;;;;;;;;;;;;;;;0.05;71.19;101575.81;5035434;28;19928;-79
2022/03/14 05:20:46;;;;;;;;;;;;;;;0.05;72.70;101583.03;5040945;28;19932;-79
2022/03/14 05:23:21;;;;;;;;;;;;;;;-0.08;73.81;101587.19;5048263;28;19924;-79
2022/03/14 05:25:49;;;;;;;;;;;;;;;-0.20;76.73;101592.19;5034780;28;19932;-79
2022/03/14 05:28:24;;;;;;;;;;;;;;;-0.26;77.17;101590.28;5037677;28;19928;-79
2022/03/14 05:30:57;;;;;;;;;;;;;;;-0.27;79.39;101588.59;5033629;28;19931;-79
2022/03/14 05:33:30;;;;;;;;;;;;;;;-0.29;79.05;101598.66;5042221;28;19932;-79
2022/03/14 05:35:58;;;;;;;;;;;;;;;-0.29;80.61;101590.66;5042629;28;19928;-79
2022/03/14 05:38:33;;;;;;;;;;;;;;;-0.37;83.56;101586.22;5047883;28;19921;-78
2022/03/14 05:41:01;;;;;;;;;;;;;;;-0.39;83.29;101590.94;5048918;28;19936;-78
2022/03/14 05:43:36;;;;;;;;;;;;;;;-0.40;83.04;101586.59;5043008;28;19921;-78
2022/03/14 05:46:09;;;;;;;;;;;;;;;-0.43;83.38;101586.09;5034513;28;20306;-78
2022/03/14 05:48:42;;;;;;;;;;;;;;;-0.40;81.96;101596.44;5038483;28;19929;-78
2022/03/14 05:51:10;;;;;;;;;;;;;;;-0.33;79.57;101600.06;5035048;28;19928;-78
2022/03/14 05:53:39;;;;;;;;;;;;;;;-0.29;80.09;101597.81;5047060;28;19928;-78
2022/03/14 05:56:07;;;;;;;;;;;;;;;-0.24;78.35;101598.09;5035904;28;19980;-79
2022/03/14 05:58:41;;;;;;;;;;;;;;;-0.20;78.82;101602.06;5043149;28;19924;-78
2022/03/14 06:01:10;;;;;;;;;;;;;;;-0.14;76.62;101604.00;5042043;28;19928;-78
2022/03/14 06:03:37;;;;;;;;;;;;;;;-0.07;78.04;101612.94;5036647;28;19929;-78
2022/03/14 06:06:11;;;;;;;;;;;;;;;-0.05;77.55;101607.41;5038225;28;19921;-78
2022/03/14 06:08:40;;;;;;;;;;;;;;;-0.01;77.25;101601.50;5038834;28;19928;-79
2022/03/14 06:11:09;;;;;;;;;;;;;;;0.08;75.59;101612.91;5041619;28;19920;-79
2022/03/14 06:13:43;;;;;;;;;;;;;;;0.12;74.28;101603.50;5037848;28;20554;-79
2022/03/14 06:16:10;;;;;;;;;;;;;;;0.19;72.54;101602.75;5037110;28;19921;-80
2022/03/14 06:18:38;;;;;;;;;;;;;;;0.23;75.00;101607.53;5038117;28;19921;-79
2022/03/14 06:21:06;;;;;;;;;;;;;;;0.23;75.71;101596.81;5043919;28;19921;-79
2022/03/14 06:23:35;;;;;;;;;;;;;;;0.24;75.25;101601.16;5037054;28;20597;-84
2022/03/14 06:26:04;;;;;;;;;;;;;;;0.30;74.58;101611.16;5039061;28;19932;-78
2022/03/14 06:28:37;;;;;;;;;;;;;;;0.38;73.78;101607.50;5042362;28;19939;-78
2022/03/14 06:31:11;;;;;;;;;;;;;;;0.45;75.62;101610.25;5033076;28;19924;-83
2022/03/14 06:33:44;;;;;;;;;;;;;;;0.51;73.09;101606.81;5039166;28;19928;-79
2022/03/14 06:36:17;;;;;;;;;;;;;;;0.60;72.77;101597.63;5056004;28;19928;-78
2022/03/14 06:38:45;;;;;;;;;;;;;;;0.70;72.68;101600.00;5046114;28;19925;-78
2022/03/14 06:41:19;;;;;;;;;;;;;;;0.75;72.41;101605.63;5040271;28;19929;-78
2022/03/14 06:43:53;;;;;;;;;;;;;;;0.82;69.81;101600.31;5046735;28;20375;-79
2022/03/14 06:46:21;;;;;;;;;;;;;;;0.87;70.23;101605.09;5047869;28;19936;-79
2022/03/14 06:48:49;;;;;;;;;;;;;;;0.91;73.09;101609.06;5037568;28;19928;-80
2022/03/14 06:51:17;;;;;;;;;;;;;;;0.98;71.51;101601.88;5038604;28;19925;-78
2022/03/14 06:53:45;;;;;;;;;;;;;;;1.02;71.73;101605.84;5035988;28;19936;-79
2022/03/14 06:56:21;;;;;;;;;;;;;;;1.07;69.99;101614.13;5048109;28;19925;-78
2022/03/14 06:58:53;;;;;;;;;;;;;;;1.16;67.03;101620.19;5032948;28;19921;-79
2022/03/14 07:01:22;;;;;;;;;;;;;;;1.26;65.53;101623.38;5033369;28;19925;-79
2022/03/14 07:03:55;;;;;;;;;;;;;;;1.31;65.55;101620.94;5040130;28;19947;-78
2022/03/14 07:06:28;;;;;;;;;;;;;;;1.37;68.69;101630.06;5032351;28;19938;-79
2022/03/14 07:08:56;;;;;;;;;;;;;;;1.41;67.28;101634.00;5036392;28;19921;-79
2022/03/14 07:11:25;;;;;;;;;;;;;;;1.50;64.14;101638.19;5037900;28;19920;-79
2022/03/14 07:13:56;;;;;;;;;;;;;;;1.56;62.81;101636.59;5038531;28;19936;-79
2022/03/14 07:16:29;;;;;;;;;;;;;;;1.64;65.32;101633.75;5031079;28;20357;-79
2022/03/14 07:18:56;;;;;;;;;;;;;;;1.68;64.82;101637.69;5028788;28;20649;-79
2022/03/14 07:21:28;;;;;;;;;;;;;;;1.72;65.08;101642.69;5029986;28;19940;-79
2022/03/14 07:24:01;;;;;;;;;;;;;;;1.81;63.83;101634.28;5026425;28;19925;-79
2022/03/14 07:26:30;;;;;;;;;;;;;;;1.90;65.43;101639.47;5025790;28;19929;-79
2022/03/14 07:29:07;;;;;;;;;;;;;;;1.96;62.90;101641.34;5026883;28;19925;-79
2022/03/14 07:31:37;;;;;;;;;;;;;;;2.03;61.31;101640.38;5032275;28;19932;-79
2022/03/14 07:34:10;;;;;;;;;;;;;;;2.11;60.92;101631.31;5031333;28;20631;-79
2022/03/14 07:36:43;;;;;;;;;;;;;;;2.21;60.17;101636.31;5033793;28;19931;-79
2022/03/14 07:39:16;;;;;;;;;;;;;;;2.29;60.30;101646.03;5028000;28;19932;-79
2022/03/14 07:41:50;;;;;;;;;;;;;;;2.37;60.53;101640.50;5032494;28;20178;-79
2022/03/14 07:44:23;;;;;;;;;;;;;;;2.52;58.85;101634.97;5026017;28;19925;-79
2022/03/14 07:46:51;;;;;;;;;;;;;;;2.64;55.97;101640.59;5030188;28;19935;-79
2022/03/14 07:49:24;;;;;;;;;;;;;;;2.76;56.76;101649.69;5043255;28;21724;-79
2022/03/14 07:51:56;;;;;;;;;;;;;;;2.84;55.08;101659.44;5031685;28;19925;-79
2022/03/14 07:54:25;;;;;;;;;;;;;;;2.93;56.34;101655.53;5027689;28;19944;-80
2022/03/14 07:56:59;;;;;;;;;;;;;;;3.11;55.70;101663.00;5029838;28;19925;-82
2022/03/14 07:59:27;;;;;;;;;;;;;;;3.15;54.47;101661.56;5031608;28;20499;-80
2022/03/14 08:02:00;;;;;;;;;;;;;;;3.29;55.90;101661.56;5035512;28;20422;-80
2022/03/14 08:04:28;;;;;;;;;;;;;;;3.45;53.75;101661.13;5015411;28;19929;-79
2022/03/14 08:07:01;;;;;;;;;;;;;;;3.56;54.18;101652.44;5024251;28;19933;-79
2022/03/14 08:09:34;;;;;;;;;;;;;;;3.92;50.21;101655.66;5007927;28;20480;-79
2022/03/14 08:12:04;;;;;;;;;;;;;;;3.99;50.14;101664.56;5008286;28;19924;-79
2022/03/14 08:14:37;;;;;;;;;;;;;;;4.13;50.69;101646.50;5007228;28;20633;-79
2022/03/14 08:17:12;;;;;;;;;;;;;;;4.21;49.32;101643.56;5017005;28;19929;-80
2022/03/14 08:19:40;;;;;;;;;;;;;;;4.29;48.22;101649.75;5016164;28;19929;-80
2022/03/14 08:22:13;;;;;;;;;;;;;;;4.35;48.54;101649.72;5012295;28;19936;-80
2022/03/14 08:24:41;;;;;;;;;;;;;;;4.42;49.30;101649.69;5014791;28;20008;-79
2022/03/14 08:27:10;;;;;;;;;;;;;;;4.51;49.73;101658.34;5011078;28;19929;-79
2022/03/14 08:29:43;;;;;;;;;;;;;;;4.64;48.33;101660.16;5017486;28;19929;-79
2022/03/14 08:32:16;;;;;;;;;;;;;;;4.68;48.29;101670.31;5021396;28;19924;-80
2022/03/14 08:34:51;;;;;;;;;;;;;;;4.76;47.93;101671.91;5015763;28;19925;-79
2022/03/14 08:37:24;;;;;;;;;;;;;;;4.93;48.31;101669.53;5027106;28;21442;-80
2022/03/14 08:39:57;;;;;;;;;;;;;;;5.10;47.87;101667.94;5008820;28;19929;-79
2022/03/14 08:42:31;;;;;;;;;;;;;;;5.23;47.86;101663.50;5018879;28;19932;-80
2022/03/14 08:45:05;;;;;;;;;;;;;;;5.28;46.95;101660.97;5018153;28;19924;-80
2022/03/14 08:47:34;;;;;;;;;;;;;;;5.47;46.68;101666.41;5023347;28;20623;-79
2022/03/14 08:50:09;;;;;;;;;;;;;;;5.52;48.20;101659.28;5013711;28;19929;-79
2022/03/14 08:52:43;;;;;;;;;;;;;;;5.70;45.83;101671.19;5014013;28;19929;-79
2022/03/14 08:55:11;;;;;;;;;;;;;;;5.69;46.17;101664.97;5015556;28;19928;-79
2022/03/14 08:57:45;;;;;;;;;;;;;;;5.77;45.96;101656.56;5013398;28;19929;-79
2022/03/14 09:00:19;;;;;;;;;;;;;;;5.89;46.30;101655.81;5024365;28;19928;-79
2022/03/14 09:02:47;;;;;;;;;;;;;;;5.87;44.43;101647.09;5016976;28;19980;-79
2022/03/14 09:05:14;;;;;;;;;;;;;;;5.87;45.22;101649.81;5016795;28;19925;-79
2022/03/14 09:07:42;;;;;;;;;;;;;;;5.92;44.53;101660.78;5009091;28;19936;-79
2022/03/14 09:10:17;;;;;;;;;;;;;;;5.93;43.27;101652.44;5012661;28;19925;-78
2022/03/14 09:12:51;;;;;;;;;;;;;;;5.73;43.25;101657.22;5015734;28;19936;-78
2022/03/14 09:15:27;;;;;;;;;;;;;;;5.74;44.61;101673.22;5016891;28;19925;-78
2022/03/14 09:17:56;;;;;;;;;;;;;;;5.79;45.10;101667.16;5015424;28;21389;-78
2022/03/14 09:20:30;;;;;;;;;;;;;;;5.88;43.64;101671.22;5008035;28;19925;-78
2022/03/14 09:22:58;;;;;;;;;;;;;;;5.89;44.49;101663.94;5010570;28;19936;-78
2022/03/14 09:25:31;;;;;;;;;;;;;;;5.78;44.35;101677.13;5020264;28;19925;-78
2022/03/14 09:28:05;;;;;;;;;;;;;;;5.72;44.38;101677.22;5013921;28;19929;-78
2022/03/14 09:30:33;;;;;;;;;;;;;;;5.71;43.51;101679.06;5015623;28;20788;-78
2022/03/14 09:33:06;;;;;;;;;;;;;;;5.74;42.86;101683.19;5019379;28;19936;-78
2022/03/14 09:35:39;;;;;;;;;;;;;;;5.84;42.80;101675.41;5018836;28;21154;-79
2022/03/14 09:38:08;;;;;;;;;;;;;;;5.77;43.99;101686.28;5019448;28;20601;-79
2022/03/14 09:40:42;;;;;;;;;;;;;;;5.78;44.34;101677.13;5012105;28;19929;-78
2022/03/14 09:43:18;;;;;;;;;;;;;;;5.83;45.36;101681.03;5014147;28;20289;-79
2022/03/14 09:45:51;;;;;;;;;;;;;;;5.88;44.56;101681.19;5016009;28;19929;-79
2022/03/14 09:48:24;;;;;;;;;;;;;;;5.89;43.65;101680.16;5013924;28;19929;-79
2022/03/14 09:50:59;;;;;;;;;;;;;;;5.92;45.25;101688.63;5017126;28;19929;-79
2022/03/14 09:53:33;;;;;;;;;;;;;;;6.03;44.69;101689.78;5013207;28;21367;-79
2022/03/14 09:56:06;;;;;;;;;;;;;;;6.17;45.77;101695.03;5019580;28;19929;-79
2022/03/14 09:58:40;;;;;;;;;;;;;;;6.21;44.69;101701.66;5020461;28;19925;-78
2022/03/14 10:01:08;;;;;;;;;;;;;;;6.19;43.82;101706.47;5025322;28;20055;-78
2022/03/14 10:03:42;;;;;;;;;;;;;;;6.32;43.90;101708.19;5009966;28;19928;-78
2022/03/14 10:06:15;;;;;;;;;;;;;;;6.30;43.73;101711.94;5013866;28;19932;-79
2022/03/14 10:08:47;;;;;;;;;;;;;;;6.35;44.78;101708.53;5038190;28;20361;-79
2022/03/14 10:11:20;;;;;;;;;;;;;;;6.38;43.69;101709.97;5014717;28;20372;-78
2022/03/14 10:13:55;;;;;;;;;;;;;;;6.57;44.82;101713.50;5017866;28;19929;-79
2022/03/14 10:16:29;;;;;;;;;;;;;;;6.63;45.05;101704.50;5016370;28;19940;-78
2022/03/14 10:19:05;;;;;;;;;;;;;;;6.62;42.28;101698.22;5010070;28;19929;-77
2022/03/14 10:21:39;;;;;;;;;;;;;;;6.56;44.31;101696.44;5011809;28;19935;-77
2022/03/14 10:24:09;;;;;;;;;;;;;;;6.60;44.79;101688.69;5013580;28;19929;-77
2022/03/14 10:26:43;;;;;;;;;;;;;;;6.73;42.52;101695.81;5018454;28;19936;-77
2022/03/14 10:29:18;;;;;;;;;;;;;;;6.76;42.72;101689.94;5029062;28;19928;-78
2022/03/14 10:31:54;;;;;;;;;;;;;;;6.74;43.76;101692.03;5012261;28;20704;-77
2022/03/14 10:34:27;;;;;;;;;;;;;;;6.95;44.06;101705.06;5019112;28;19924;-77
2022/03/14 10:37:00;;;;;;;;;;;;;;;7.04;43.83;101712.88;5014509;28;19936;-77
2022/03/14 10:39:33;;;;;;;;;;;;;;;6.97;43.65;101705.69;5008389;28;19939;-78
2022/03/14 10:42:03;;;;;;;;;;;;;;;7.05;43.04;101706.41;5008596;28;20566;-77
2022/03/14 10:44:33;;;;;;;;;;;;;;;7.09;44.41;101708.41;5008945;28;19936;-78
2022/03/14 10:47:01;;;;;;;;;;;;;;;7.18;44.63;101708.91;5011079;28;19929;-77
2022/03/14 10:49:29;;;;;;;;;;;;;;;7.00;45.92;101715.19;5014476;28;19929;-77
2022/03/14 10:52:06;;;;;;;;;;;;;;;6.92;45.72;101705.53;5011716;28;19936;-78
2022/03/14 10:54:39;;;;;;;;;;;;;;;7.06;47.10;101702.66;5010988;28;19929;-78
2022/03/14 10:57:13;;;;;;;;;;;;;;;7.01;47.16;101705.22;5006617;28;21108;-78
2022/03/14 10:59:48;;;;;;;;;;;;;;;7.10;47.34;101701.13;5027539;28;20471;-79
2022/03/14 11:02:22;;;;;;;;;;;;;;;7.13;48.24;101706.06;5027806;28;19936;-78
2022/03/14 11:04:57;;;;;;;;;;;;;;;7.17;50.14;101703.72;5026349;28;19936;-79
2022/03/14 11:07:31;;;;;;;;;;;;;;;7.41;51.61;101705.41;5011237;28;19968;-79
2022/03/14 11:10:00;;;;;;;;;;;;;;;7.63;49.43;101702.16;5007820;28;19928;-78
2022/03/14 11:12:33;;;;;;;;;;;;;;;7.73;51.54;101713.22;5008764;28;19960;-77
2022/03/14 11:15:09;;;;;;;;;;;;;;;7.92;51.86;101715.81;5014638;28;19929;-78
2022/03/14 11:17:42;;;;;;;0.20;0.20;;;;;;;8.23;51.21;101719.19;5015807;28;19929;-78
2022/03/14 11:20:16;;;;;;;0.20;0.20;;;;;;;8.26;52.06;101718.72;5012382;28;20056;-79
2022/03/14 11:22:50;;;;;;;0.20;0.20;;;;;;;8.24;51.15;101718.13;5013451;28;20079;-79
2022/03/14 11:25:24;;;;;;;0.10;0.10;;;;;;;8.17;54.63;101715.56;5016609;28;20785;-78
2022/03/14 11:28:00;;;;;;;0.20;0.20;;;;;;;8.33;56.21;101722.94;5024121;28;20057;-77
2022/03/14 11:30:37;;;;;;;0.20;0.20;;;;;;;8.26;59.76;101708.72;5010329;28;20056;-78
2022/03/14 11:33:06;;;;;;;0.20;0.20;;;;;;;8.29;63.27;101696.56;5004575;28;20483;-77
2022/03/14 11:35:39;;;;;;;0.22;0.22;;;;;;;8.37;64.99;101709.75;5008764;28;20064;-78
2022/03/14 11:38:13;;;;;;;0.20;0.20;;;;;;;8.39;63.81;101704.06;5014320;28;20045;-79
2022/03/14 11:40:49;;;;;;;0.20;0.20;;;;;;;8.46;61.25;101707.50;5010912;28;20813;-79
2022/03/14 11:43:23;;;;;;;0.17;0.17;;;;;;;8.45;64.77;101706.69;5010064;28;20159;-78
2022/03/14 11:46:01;;;;;;;0.20;0.20;;;;;;;8.51;73.34;101711.13;5010681;28;20057;-77
2022/03/14 11:48:35;;;;;;;0.20;0.20;;;;;;;8.56;86.19;101715.03;5006356;28;20651;-79
2022/03/14 11:51:08;;;;;;;0.30;0.30;;;;;;;8.63;95.24;101713.00;5015383;28;20107;-78
2022/03/14 11:53:48;;;;;;;0.20;0.20;;;;;;;8.61;95.58;101712.41;5016969;28;20793;-79
2022/03/14 11:56:21;;;;;;;0.20;0.20;;;;;;;8.71;100.00;101715.31;5031726;28;20051;-80
2022/03/14 11:58:56;;;;;;;0.52;0.25;;;;;;;8.83;100.00;101715.28;5016736;28;20056;-80
2022/03/14 12:01:31;;;;;;;0.20;0.20;;;;;;;8.87;95.41;101721.88;5018904;28;20045;-79
2022/03/14 12:04:05;;;;;;;0.20;0.20;;;;;;;8.91;96.60;101728.47;5033249;28;20060;-80
2022/03/14 12:07:10;;;;;;;0.47;0.30;;;;;;;9.12;100.00;101734.28;5015955;28;20052;-80
2022/03/14 12:09:48;;;;;;;0.20;0.20;;;;;;;9.06;98.59;101727.94;5013979;28;20494;-79
2022/03/14 12:12:30;;;;;;;0.20;0.20;;;;;;;9.11;97.21;101729.91;5011125;28;20049;-80
2022/03/14 12:15:05;;;;;;;0.10;0.10;;;;;;;8.98;97.45;101723.72;5031193;28;20049;-80
2022/03/14 12:17:45;;;;;;;0.20;0.20;;;;;;;9.12;99.55;101723.41;5007197;28;20084;-79
2022/03/14 12:20:21;;;;;;;0.20;0.20;;;;;;;9.05;96.29;101726.28;5008655;28;20681;-79
2022/03/14 12:22:54;;;;;;;0.20;0.20;;;;;;;9.01;96.84;101719.69;5013809;28;20060;-79
2022/03/14 12:25:42;;;;;;;0.10;0.10;;;;;;;9.09;100.00;101715.75;5013414;28;20041;-79
2022/03/14 12:28:32;;;;;;;0.10;0.10;;;;;;;9.30;100.00;101706.06;5015264;28;20057;-80
2022/03/14 12:31:14;;;;;;;0.22;0.22;;;;;;;9.53;92.49;101696.94;5017449;28;20053;-79
2022/03/14 12:33:49;;;;;;;0.20;0.20;;;;;;;9.75;93.46;101699.72;5012720;28;20053;-79
2022/03/14 12:36:33;;;;;;;0.10;0.10;;;;;;;9.44;85.68;101707.38;5015071;28;20057;-79
2022/03/14 12:39:28;;;;;;;0.20;0.20;;;;;;;9.73;86.18;101714.63;5013492;28;20061;-80
2022/03/14 12:42:21;;;;;;;0.20;0.20;;;;;;;9.91;86.59;101725.22;5016351;28;20532;-80